Cibecue, Arizona
Current Conditions -  °F | °C
As of 11:55 PM on Wednesday 26 Nov 2014 (Local Time) from KSOW Reporting Station
Clear Clear  
Wind Chill: 29°   Ceiling: Unl
Heat Index: 34°   Visibility: 10mi
Dew Point: 14°   Wind: 6mph
Humidity: 44%   Direction: 80°E
Pressure: 30.48"   Gusts: NA
Location:  34.03°N, 110.48°W
Report Text: KSOW 270655Z AUTO 08005KT 10SM CLR 01/M10 A3048 RMK AO2
Loading
Personal Weather Stations






























Interactive Weather Map New forecast layout! Learn more

10-Day Weather Forecast

Advertisements
Track Severe Weather on mobile